sensor_id;sensor_type;location;lat;lon;timestamp;temperature;humidity
816;DHT22;25928;51.062;13.752;2023-02-26T00:02:03;2.10;1.00
816;DHT22;25928;51.062;13.752;2023-02-26T00:04:29;2.10;1.00
816;DHT22;25928;51.062;13.752;2023-02-26T00:06:54;2.20;1.00
816;DHT22;25928;51.062;13.752;2023-02-26T00:09:21;2.30;1.00
816;DHT22;25928;51.062;13.752;2023-02-26T00:11:47;2.30;1.00
816;DHT22;25928;51.062;13.752;2023-02-26T00:14:14;2.10;1.00
816;DHT22;25928;51.062;13.752;2023-02-26T00:16:41;2.10;1.00
816;DHT22;25928;51.062;13.752;2023-02-26T00:19:09;2.20;1.00
816;DHT22;25928;51.062;13.752;2023-02-26T00:21:35;2.20;1.00
816;DHT22;25928;51.062;13.752;2023-02-26T00:24:01;2.20;1.00
816;DHT22;25928;51.062;13.752;2023-02-26T00:26:28;2.10;1.00
816;DHT22;25928;51.062;13.752;2023-02-26T00:28:55;2.00;1.00
816;DHT22;25928;51.062;13.752;2023-02-26T00:31:22;2.10;1.00
816;DHT22;25928;51.062;13.752;2023-02-26T00:33:49;2.00;1.00
816;DHT22;25928;51.062;13.752;2023-02-26T00:36:48;2.00;1.00
816;DHT22;25928;51.062;13.752;2023-02-26T00:41:59;1.90;1.00
816;DHT22;25928;51.062;13.752;2023-02-26T00:44:25;1.90;1.00
816;DHT22;25928;51.062;13.752;2023-02-26T00:46:58;2.00;1.00
816;DHT22;25928;51.062;13.752;2023-02-26T00:49:40;2.00;1.00
816;DHT22;25928;51.062;13.752;2023-02-26T00:52:13;2.00;1.00
816;DHT22;25928;51.062;13.752;2023-02-26T00:54:39;1.90;1.00
816;DHT22;25928;51.062;13.752;2023-02-26T00:57:05;2.00;1.00
816;DHT22;25928;51.062;13.752;2023-02-26T00:59:31;2.00;1.00
816;DHT22;25928;51.062;13.752;2023-02-26T01:01:57;2.00;1.00
816;DHT22;25928;51.062;13.752;2023-02-26T01:04:23;2.00;1.00
816;DHT22;25928;51.062;13.752;2023-02-26T01:06:54;2.10;1.00
816;DHT22;25928;51.062;13.752;2023-02-26T01:11:55;1.90;1.00
816;DHT22;25928;51.062;13.752;2023-02-26T01:14:23;1.90;1.00
816;DHT22;25928;51.062;13.752;2023-02-26T01:19:52;1.80;1.00
816;DHT22;25928;51.062;13.752;2023-02-26T01:22:27;1.80;1.00
816;DHT22;25928;51.062;13.752;2023-02-26T01:25:08;1.90;1.00
816;DHT22;25928;51.062;13.752;2023-02-26T01:27:34;1.90;1.00
816;DHT22;25928;51.062;13.752;2023-02-26T01:30:00;2.00;1.00
816;DHT22;25928;51.062;13.752;2023-02-26T01:35:22;2.00;1.00
816;DHT22;25928;51.062;13.752;2023-02-26T01:38:21;1.90;1.00
816;DHT22;25928;51.062;13.752;2023-02-26T01:43:32;1.90;1.00
816;DHT22;25928;51.062;13.752;2023-02-26T01:46:13;1.80;1.00
816;DHT22;25928;51.062;13.752;2023-02-26T01:48:56;1.90;1.00
816;DHT22;25928;51.062;13.752;2023-02-26T01:51:51;2.00;1.00
816;DHT22;25928;51.062;13.752;2023-02-26T01:54:20;2.10;1.00
816;DHT22;25928;51.062;13.752;2023-02-26T01:56:53;2.10;1.00
816;DHT22;25928;51.062;13.752;2023-02-26T01:59:20;2.00;1.00
816;DHT22;25928;51.062;13.752;2023-02-26T02:01:53;2.00;1.00
816;DHT22;25928;51.062;13.752;2023-02-26T02:04:19;2.10;1.00
816;DHT22;25928;51.062;13.752;2023-02-26T02:06:45;2.20;1.00
816;DHT22;25928;51.062;13.752;2023-02-26T02:09:11;2.00;1.00
816;DHT22;25928;51.062;13.752;2023-02-26T02:14:30;2.00;1.00
816;DHT22;25928;51.062;13.752;2023-02-26T02:20:12;2.00;1.00
816;DHT22;25928;51.062;13.752;2023-02-26T02:25:53;2.20;1.00
816;DHT22;25928;51.062;13.752;2023-02-26T02:31:30;2.20;1.00
816;DHT22;25928;51.062;13.752;2023-02-26T02:34:13;2.30;1.00
816;DHT22;25928;51.062;13.752;2023-02-26T02:36:46;2.40;1.00
816;DHT22;25928;51.062;13.752;2023-02-26T02:39:37;2.30;1.00
816;DHT22;25928;51.062;13.752;2023-02-26T02:42:07;2.30;1.00
816;DHT22;25928;51.062;13.752;2023-02-26T02:44:38;2.20;1.00
816;DHT22;25928;51.062;13.752;2023-02-26T02:47:08;2.20;1.00
816;DHT22;25928;51.062;13.752;2023-02-26T02:49:43;2.20;1.00
816;DHT22;25928;51.062;13.752;2023-02-26T02:52:24;2.10;1.00
816;DHT22;25928;51.062;13.752;2023-02-26T02:55:04;2.10;1.00
816;DHT22;25928;51.062;13.752;2023-02-26T02:57:36;2.40;1.00
816;DHT22;25928;51.062;13.752;2023-02-26T03:00:07;2.30;1.00
816;DHT22;25928;51.062;13.752;2023-02-26T03:03:03;2.20;1.00
816;DHT22;25928;51.062;13.752;2023-02-26T03:05:31;2.30;1.00
816;DHT22;25928;51.062;13.752;2023-02-26T03:08:01;2.30;1.00
816;DHT22;25928;51.062;13.752;2023-02-26T03:10:27;2.30;1.00
816;DHT22;25928;51.062;13.752;2023-02-26T03:12:53;2.30;1.00
816;DHT22;25928;51.062;13.752;2023-02-26T03:15:52;2.40;1.00
816;DHT22;25928;51.062;13.752;2023-02-26T03:21:16;2.20;1.00
816;DHT22;25928;51.062;13.752;2023-02-26T03:23:51;2.30;1.00
816;DHT22;25928;51.062;13.752;2023-02-26T03:26:26;2.30;1.00
816;DHT22;25928;51.062;13.752;2023-02-26T03:31:57;2.30;1.00
816;DHT22;25928;51.062;13.752;2023-02-26T03:34:40;2.50;1.00
816;DHT22;25928;51.062;13.752;2023-02-26T03:37:25;2.40;1.00
816;DHT22;25928;51.062;13.752;2023-02-26T03:39:54;2.40;1.00
816;DHT22;25928;51.062;13.752;2023-02-26T03:44:58;2.40;1.00
816;DHT22;25928;51.062;13.752;2023-02-26T03:47:25;2.40;1.00
816;DHT22;25928;51.062;13.752;2023-02-26T03:50:00;2.40;1.00
816;DHT22;25928;51.062;13.752;2023-02-26T03:52:29;2.50;1.00
816;DHT22;25928;51.062;13.752;2023-02-26T03:55:18;2.50;1.00
816;DHT22;25928;51.062;13.752;2023-02-26T03:57:47;2.60;1.00
816;DHT22;25928;51.062;13.752;2023-02-26T04:00:16;2.60;1.00
816;DHT22;25928;51.062;13.752;2023-02-26T04:05:17;2.60;1.00
816;DHT22;25928;51.062;13.752;2023-02-26T04:07:45;2.60;1.00
816;DHT22;25928;51.062;13.752;2023-02-26T04:10:15;2.50;1.00
816;DHT22;25928;51.062;13.752;2023-02-26T04:12:41;2.50;1.00
816;DHT22;25928;51.062;13.752;2023-02-26T04:15:08;2.60;1.00
816;DHT22;25928;51.062;13.752;2023-02-26T04:17:34;2.60;1.00
816;DHT22;25928;51.062;13.752;2023-02-26T04:19:59;2.60;1.00
816;DHT22;25928;51.062;13.752;2023-02-26T04:22:25;2.70;1.00
816;DHT22;25928;51.062;13.752;2023-02-26T04:24:51;2.70;1.00
816;DHT22;25928;51.062;13.752;2023-02-26T04:27:16;2.60;1.00
816;DHT22;25928;51.062;13.752;2023-02-26T04:29:42;2.60;1.00
816;DHT22;25928;51.062;13.752;2023-02-26T04:32:07;2.50;1.00
816;DHT22;25928;51.062;13.752;2023-02-26T04:34:33;2.40;1.00
816;DHT22;25928;51.062;13.752;2023-02-26T04:36:59;2.40;1.00
816;DHT22;25928;51.062;13.752;2023-02-26T04:39:24;2.40;1.00
816;DHT22;25928;51.062;13.752;2023-02-26T04:41:50;2.40;1.00
816;DHT22;25928;51.062;13.752;2023-02-26T04:44:15;2.50;1.00
816;DHT22;25928;51.062;13.752;2023-02-26T04:46:41;2.40;1.00
816;DHT22;25928;51.062;13.752;2023-02-26T04:49:07;2.50;1.00
816;DHT22;25928;51.062;13.752;2023-02-26T04:51:33;2.50;1.00
816;DHT22;25928;51.062;13.752;2023-02-26T04:53:58;2.60;1.00
816;DHT22;25928;51.062;13.752;2023-02-26T04:56:24;2.50;1.00
816;DHT22;25928;51.062;13.752;2023-02-26T04:58:50;2.40;1.00
816;DHT22;25928;51.062;13.752;2023-02-26T05:01:16;2.40;1.00
816;DHT22;25928;51.062;13.752;2023-02-26T05:03:41;2.30;1.00
816;DHT22;25928;51.062;13.752;2023-02-26T05:06:07;2.40;1.00
816;DHT22;25928;51.062;13.752;2023-02-26T05:08:33;2.50;1.00
816;DHT22;25928;51.062;13.752;2023-02-26T05:10:58;2.40;1.00
816;DHT22;25928;51.062;13.752;2023-02-26T05:13:24;2.50;1.00
816;DHT22;25928;51.062;13.752;2023-02-26T05:15:53;2.50;1.00
816;DHT22;25928;51.062;13.752;2023-02-26T05:18:19;2.60;1.00
816;DHT22;25928;51.062;13.752;2023-02-26T05:20:44;2.60;1.00
816;DHT22;25928;51.062;13.752;2023-02-26T05:23:10;2.60;1.00
816;DHT22;25928;51.062;13.752;2023-02-26T05:25:36;2.60;1.00
816;DHT22;25928;51.062;13.752;2023-02-26T05:28:01;2.70;1.00
816;DHT22;25928;51.062;13.752;2023-02-26T05:30:27;2.70;1.00
816;DHT22;25928;51.062;13.752;2023-02-26T05:32:52;2.60;1.00
816;DHT22;25928;51.062;13.752;2023-02-26T05:35:19;2.60;1.00
816;DHT22;25928;51.062;13.752;2023-02-26T05:37:44;2.60;1.00
816;DHT22;25928;51.062;13.752;2023-02-26T05:40:10;2.60;1.00
816;DHT22;25928;51.062;13.752;2023-02-26T05:42:37;2.60;1.00
816;DHT22;25928;51.062;13.752;2023-02-26T05:45:04;2.50;1.00
816;DHT22;25928;51.062;13.752;2023-02-26T05:47:34;2.50;1.00
816;DHT22;25928;51.062;13.752;2023-02-26T05:50:00;2.50;1.00
816;DHT22;25928;51.062;13.752;2023-02-26T05:52:26;2.40;1.00
816;DHT22;25928;51.062;13.752;2023-02-26T05:54:52;2.40;1.00
816;DHT22;25928;51.062;13.752;2023-02-26T05:57:17;2.50;1.00
816;DHT22;25928;51.062;13.752;2023-02-26T05:59:43;2.50;1.00
816;DHT22;25928;51.062;13.752;2023-02-26T06:02:08;2.50;1.00
816;DHT22;25928;51.062;13.752;2023-02-26T06:04:34;2.40;1.00
816;DHT22;25928;51.062;13.752;2023-02-26T06:07:00;2.50;1.00
816;DHT22;25928;51.062;13.752;2023-02-26T06:09:26;2.50;1.00
816;DHT22;25928;51.062;13.752;2023-02-26T06:11:51;2.40;1.00
816;DHT22;25928;51.062;13.752;2023-02-26T06:14:17;2.40;1.00
816;DHT22;25928;51.062;13.752;2023-02-26T06:16:43;2.40;1.00
816;DHT22;25928;51.062;13.752;2023-02-26T06:19:08;2.40;1.00
816;DHT22;25928;51.062;13.752;2023-02-26T06:21:34;2.50;1.00
816;DHT22;25928;51.062;13.752;2023-02-26T06:23:59;2.60;1.00
816;DHT22;25928;51.062;13.752;2023-02-26T06:26:25;2.60;1.00
816;DHT22;25928;51.062;13.752;2023-02-26T06:28:51;2.60;1.00
816;DHT22;25928;51.062;13.752;2023-02-26T06:31:16;2.50;1.00
816;DHT22;25928;51.062;13.752;2023-02-26T06:33:42;2.50;1.00
816;DHT22;25928;51.062;13.752;2023-02-26T06:36:07;2.50;1.00
816;DHT22;25928;51.062;13.752;2023-02-26T06:38:33;2.50;1.00
816;DHT22;25928;51.062;13.752;2023-02-26T06:40:59;2.50;1.00
816;DHT22;25928;51.062;13.752;2023-02-26T06:43:24;2.50;1.00
816;DHT22;25928;51.062;13.752;2023-02-26T06:45:50;2.60;1.00
816;DHT22;25928;51.062;13.752;2023-02-26T06:48:15;2.70;1.00
816;DHT22;25928;51.062;13.752;2023-02-26T06:50:41;2.70;1.00
816;DHT22;25928;51.062;13.752;2023-02-26T06:53:07;2.80;1.00
816;DHT22;25928;51.062;13.752;2023-02-26T06:55:32;2.80;1.00
816;DHT22;25928;51.062;13.752;2023-02-26T06:57:58;2.90;1.00
816;DHT22;25928;51.062;13.752;2023-02-26T07:00:24;2.90;1.00
816;DHT22;25928;51.062;13.752;2023-02-26T07:02:51;3.00;1.00
816;DHT22;25928;51.062;13.752;2023-02-26T07:05:17;3.00;1.00
816;DHT22;25928;51.062;13.752;2023-02-26T07:07:43;3.00;1.00
816;DHT22;25928;51.062;13.752;2023-02-26T07:10:10;3.00;1.00
816;DHT22;25928;51.062;13.752;2023-02-26T07:12:36;3.10;1.00
816;DHT22;25928;51.062;13.752;2023-02-26T07:15:04;3.20;1.00
816;DHT22;25928;51.062;13.752;2023-02-26T07:17:30;3.00;1.00
816;DHT22;25928;51.062;13.752;2023-02-26T07:19:55;3.10;1.00
816;DHT22;25928;51.062;13.752;2023-02-26T07:22:21;3.10;1.00
816;DHT22;25928;51.062;13.752;2023-02-26T07:24:47;3.10;1.00
816;DHT22;25928;51.062;13.752;2023-02-26T07:27:13;3.10;1.00
816;DHT22;25928;51.062;13.752;2023-02-26T07:29:39;3.30;1.00
816;DHT22;25928;51.062;13.752;2023-02-26T07:32:05;3.30;1.00
816;DHT22;25928;51.062;13.752;2023-02-26T07:34:31;3.20;1.00
816;DHT22;25928;51.062;13.752;2023-02-26T07:36:56;3.20;1.00
816;DHT22;25928;51.062;13.752;2023-02-26T07:39:24;3.20;1.00
816;DHT22;25928;51.062;13.752;2023-02-26T07:41:49;3.10;1.00
816;DHT22;25928;51.062;13.752;2023-02-26T07:44:15;3.10;1.00
816;DHT22;25928;51.062;13.752;2023-02-26T07:46:41;3.10;1.00
816;DHT22;25928;51.062;13.752;2023-02-26T07:49:06;3.10;1.00
816;DHT22;25928;51.062;13.752;2023-02-26T07:51:32;3.00;1.00
816;DHT22;25928;51.062;13.752;2023-02-26T07:53:57;2.90;1.00
816;DHT22;25928;51.062;13.752;2023-02-26T07:56:23;2.80;1.00
816;DHT22;25928;51.062;13.752;2023-02-26T07:58:49;2.70;1.00
816;DHT22;25928;51.062;13.752;2023-02-26T08:01:14;2.80;1.00
816;DHT22;25928;51.062;13.752;2023-02-26T08:03:40;2.80;1.00
816;DHT22;25928;51.062;13.752;2023-02-26T08:06:06;2.80;1.00
816;DHT22;25928;51.062;13.752;2023-02-26T08:08:33;2.90;1.00
816;DHT22;25928;51.062;13.752;2023-02-26T08:10:59;2.90;1.00
816;DHT22;25928;51.062;13.752;2023-02-26T08:13:25;2.80;1.00
816;DHT22;25928;51.062;13.752;2023-02-26T08:15:51;2.80;1.00
816;DHT22;25928;51.062;13.752;2023-02-26T08:18:17;2.80;1.00
816;DHT22;25928;51.062;13.752;2023-02-26T08:20:42;2.80;1.00
816;DHT22;25928;51.062;13.752;2023-02-26T08:23:08;2.80;1.00
816;DHT22;25928;51.062;13.752;2023-02-26T08:25:34;2.90;1.00
816;DHT22;25928;51.062;13.752;2023-02-26T08:27:59;2.80;1.00
816;DHT22;25928;51.062;13.752;2023-02-26T08:30:26;2.80;1.00
816;DHT22;25928;51.062;13.752;2023-02-26T08:32:51;3.00;1.00
816;DHT22;25928;51.062;13.752;2023-02-26T08:35:17;3.10;1.00
816;DHT22;25928;51.062;13.752;2023-02-26T08:37:43;3.10;1.00
816;DHT22;25928;51.062;13.752;2023-02-26T08:40:09;3.20;1.00
816;DHT22;25928;51.062;13.752;2023-02-26T08:42:35;3.30;1.00
816;DHT22;25928;51.062;13.752;2023-02-26T08:45:01;3.20;1.00
816;DHT22;25928;51.062;13.752;2023-02-26T08:47:27;3.20;1.00
816;DHT22;25928;51.062;13.752;2023-02-26T08:49:53;3.30;1.00
816;DHT22;25928;51.062;13.752;2023-02-26T08:52:19;3.60;1.00
816;DHT22;25928;51.062;13.752;2023-02-26T08:54:45;3.80;1.00
816;DHT22;25928;51.062;13.752;2023-02-26T08:57:11;3.80;1.00
816;DHT22;25928;51.062;13.752;2023-02-26T08:59:36;4.00;1.00
816;DHT22;25928;51.062;13.752;2023-02-26T09:02:02;4.30;1.00
816;DHT22;25928;51.062;13.752;2023-02-26T09:04:28;4.40;1.00
816;DHT22;25928;51.062;13.752;2023-02-26T09:06:54;4.60;1.00
816;DHT22;25928;51.062;13.752;2023-02-26T09:09:20;4.70;1.00
816;DHT22;25928;51.062;13.752;2023-02-26T09:11:45;4.60;1.00
816;DHT22;25928;51.062;13.752;2023-02-26T09:14:11;4.60;1.00
816;DHT22;25928;51.062;13.752;2023-02-26T09:16:37;4.70;1.00
816;DHT22;25928;51.062;13.752;2023-02-26T09:19:04;4.60;1.00
816;DHT22;25928;51.062;13.752;2023-02-26T09:21:30;4.50;1.00
816;DHT22;25928;51.062;13.752;2023-02-26T09:23:56;4.50;1.00
816;DHT22;25928;51.062;13.752;2023-02-26T09:26:21;4.40;1.00
816;DHT22;25928;51.062;13.752;2023-02-26T09:28:47;4.50;1.00
816;DHT22;25928;51.062;13.752;2023-02-26T09:31:13;4.70;1.00
816;DHT22;25928;51.062;13.752;2023-02-26T09:33:38;5.00;1.00
816;DHT22;25928;51.062;13.752;2023-02-26T09:36:04;5.10;1.00
816;DHT22;25928;51.062;13.752;2023-02-26T09:38:30;5.20;1.00
816;DHT22;25928;51.062;13.752;2023-02-26T09:41:01;5.20;1.00
816;DHT22;25928;51.062;13.752;2023-02-26T09:48:43;5.10;1.00
816;DHT22;25928;51.062;13.752;2023-02-26T09:51:12;5.30;1.00
816;DHT22;25928;51.062;13.752;2023-02-26T09:53:41;5.20;1.00
816;DHT22;25928;51.062;13.752;2023-02-26T09:56:35;5.20;1.00
816;DHT22;25928;51.062;13.752;2023-02-26T09:59:03;5.10;1.00
816;DHT22;25928;51.062;13.752;2023-02-26T10:01:44;4.90;1.00
816;DHT22;25928;51.062;13.752;2023-02-26T10:04:22;5.10;1.00
816;DHT22;25928;51.062;13.752;2023-02-26T10:12:15;5.30;1.00
816;DHT22;25928;51.062;13.752;2023-02-26T10:15:00;5.30;1.00
816;DHT22;25928;51.062;13.752;2023-02-26T10:17:39;5.60;1.00
816;DHT22;25928;51.062;13.752;2023-02-26T10:20:18;5.20;1.00
816;DHT22;25928;51.062;13.752;2023-02-26T10:22:55;4.80;1.00
816;DHT22;25928;51.062;13.752;2023-02-26T10:25:32;4.60;1.00
816;DHT22;25928;51.062;13.752;2023-02-26T10:28:38;4.30;1.00
816;DHT22;25928;51.062;13.752;2023-02-26T10:33:49;4.50;1.00
816;DHT22;25928;51.062;13.752;2023-02-26T10:36:59;4.40;1.00
816;DHT22;25928;51.062;13.752;2023-02-26T10:39:31;4.40;1.00
816;DHT22;25928;51.062;13.752;2023-02-26T10:42:02;4.30;1.00
816;DHT22;25928;51.062;13.752;2023-02-26T10:44:37;4.30;1.00
816;DHT22;25928;51.062;13.752;2023-02-26T10:49:58;4.10;1.00
816;DHT22;25928;51.062;13.752;2023-02-26T10:52:27;4.00;1.00
816;DHT22;25928;51.062;13.752;2023-02-26T10:57:29;4.00;1.00
816;DHT22;25928;51.062;13.752;2023-02-26T10:59:58;4.10;1.00
816;DHT22;25928;51.062;13.752;2023-02-26T11:02:37;4.20;1.00
816;DHT22;25928;51.062;13.752;2023-02-26T11:05:05;4.30;1.00
816;DHT22;25928;51.062;13.752;2023-02-26T11:07:32;4.30;1.00
816;DHT22;25928;51.062;13.752;2023-02-26T11:10:01;4.50;1.00
816;DHT22;25928;51.062;13.752;2023-02-26T11:12:27;4.90;1.00
816;DHT22;25928;51.062;13.752;2023-02-26T11:14:53;5.20;1.00
816;DHT22;25928;51.062;13.752;2023-02-26T11:17:23;5.50;1.00
816;DHT22;25928;51.062;13.752;2023-02-26T11:22:25;4.90;1.00
816;DHT22;25928;51.062;13.752;2023-02-26T11:24:52;4.70;1.00
816;DHT22;25928;51.062;13.752;2023-02-26T11:27:26;4.80;1.00
816;DHT22;25928;51.062;13.752;2023-02-26T11:30:04;4.70;1.00
816;DHT22;25928;51.062;13.752;2023-02-26T11:32:36;4.50;1.00
816;DHT22;25928;51.062;13.752;2023-02-26T11:35:02;4.40;1.00
816;DHT22;25928;51.062;13.752;2023-02-26T11:37:37;4.40;1.00
816;DHT22;25928;51.062;13.752;2023-02-26T11:40:17;4.50;1.00
816;DHT22;25928;51.062;13.752;2023-02-26T11:42:55;4.60;1.00
816;DHT22;25928;51.062;13.752;2023-02-26T11:45:22;5.00;1.00
816;DHT22;25928;51.062;13.752;2023-02-26T11:48:01;5.20;1.00
816;DHT22;25928;51.062;13.752;2023-02-26T11:50:28;5.40;1.00
816;DHT22;25928;51.062;13.752;2023-02-26T11:53:05;5.30;1.00
816;DHT22;25928;51.062;13.752;2023-02-26T11:55:37;5.10;1.00
816;DHT22;25928;51.062;13.752;2023-02-26T11:58:16;5.00;1.00
816;DHT22;25928;51.062;13.752;2023-02-26T12:00:42;5.00;1.00
816;DHT22;25928;51.062;13.752;2023-02-26T12:03:21;4.80;1.00
816;DHT22;25928;51.062;13.752;2023-02-26T12:05:51;4.80;1.00
816;DHT22;25928;51.062;13.752;2023-02-26T12:08:29;4.80;1.00
816;DHT22;25928;51.062;13.752;2023-02-26T12:11:15;4.60;1.00
816;DHT22;25928;51.062;13.752;2023-02-26T12:31:33;5.10;1.00
816;DHT22;25928;51.062;13.752;2023-02-26T13:04:25;4.30;1.00
816;DHT22;25928;51.062;13.752;2023-02-26T13:10:10;4.30;1.00
816;DHT22;25928;51.062;13.752;2023-02-26T13:18:14;4.70;1.00
816;DHT22;25928;51.062;13.752;2023-02-26T13:20:56;4.80;1.00
816;DHT22;25928;51.062;13.752;2023-02-26T13:23:30;4.90;1.00
816;DHT22;25928;51.062;13.752;2023-02-26T13:26:03;5.00;1.00
816;DHT22;25928;51.062;13.752;2023-02-26T13:28:51;5.00;1.00
816;DHT22;25928;51.062;13.752;2023-02-26T13:31:32;5.10;1.00
816;DHT22;25928;51.062;13.752;2023-02-26T13:34:12;5.10;1.00
816;DHT22;25928;51.062;13.752;2023-02-26T13:36:40;5.00;1.00
816;DHT22;25928;51.062;13.752;2023-02-26T13:39:44;5.00;1.00
816;DHT22;25928;51.062;13.752;2023-02-26T13:42:24;4.90;1.00
816;DHT22;25928;51.062;13.752;2023-02-26T13:52:28;5.50;1.00
816;DHT22;25928;51.062;13.752;2023-02-26T13:54:54;5.70;1.00
816;DHT22;25928;51.062;13.752;2023-02-26T13:57:25;5.80;1.00
816;DHT22;25928;51.062;13.752;2023-02-26T14:00:08;5.70;1.00
816;DHT22;25928;51.062;13.752;2023-02-26T14:02:54;5.90;1.00
816;DHT22;25928;51.062;13.752;2023-02-26T14:05:53;6.10;1.00
816;DHT22;25928;51.062;13.752;2023-02-26T14:08:29;5.70;1.00
816;DHT22;25928;51.062;13.752;2023-02-26T14:14:16;5.20;1.00
816;DHT22;25928;51.062;13.752;2023-02-26T14:16:44;5.10;1.00
816;DHT22;25928;51.062;13.752;2023-02-26T14:19:25;5.20;1.00
816;DHT22;25928;51.062;13.752;2023-02-26T14:21:56;5.30;1.00
816;DHT22;25928;51.062;13.752;2023-02-26T14:24:35;5.40;1.00
816;DHT22;25928;51.062;13.752;2023-02-26T14:32:33;5.20;1.00
816;DHT22;25928;51.062;13.752;2023-02-26T14:35:05;5.20;1.00
816;DHT22;25928;51.062;13.752;2023-02-26T14:37:35;5.10;1.00
816;DHT22;25928;51.062;13.752;2023-02-26T14:40:04;5.00;1.00
816;DHT22;25928;51.062;13.752;2023-02-26T14:42:44;5.10;1.00
816;DHT22;25928;51.062;13.752;2023-02-26T14:47:44;5.50;1.00
816;DHT22;25928;51.062;13.752;2023-02-26T14:50:14;5.60;1.00
816;DHT22;25928;51.062;13.752;2023-02-26T14:58:24;5.50;1.00
816;DHT22;25928;51.062;13.752;2023-02-26T15:04:11;5.30;1.00
816;DHT22;25928;51.062;13.752;2023-02-26T15:06:58;5.10;1.00
816;DHT22;25928;51.062;13.752;2023-02-26T15:12:29;4.50;1.00
816;DHT22;25928;51.062;13.752;2023-02-26T15:18:25;3.50;1.00
816;DHT22;25928;51.062;13.752;2023-02-26T15:23:39;3.30;1.00
816;DHT22;25928;51.062;13.752;2023-02-26T15:26:07;3.30;1.00
816;DHT22;25928;51.062;13.752;2023-02-26T15:28:38;3.50;1.00
816;DHT22;25928;51.062;13.752;2023-02-26T15:31:06;3.50;1.00
816;DHT22;25928;51.062;13.752;2023-02-26T15:33:33;3.70;1.00
816;DHT22;25928;51.062;13.752;2023-02-26T15:35:59;3.90;1.00
816;DHT22;25928;51.062;13.752;2023-02-26T15:38:26;4.10;1.00
816;DHT22;25928;51.062;13.752;2023-02-26T15:40:53;4.20;1.00
816;DHT22;25928;51.062;13.752;2023-02-26T15:43:23;4.30;1.00
816;DHT22;25928;51.062;13.752;2023-02-26T15:45:52;4.40;1.00
816;DHT22;25928;51.062;13.752;2023-02-26T15:48:30;4.20;1.00
816;DHT22;25928;51.062;13.752;2023-02-26T15:51:03;4.10;1.00
816;DHT22;25928;51.062;13.752;2023-02-26T15:53:34;4.00;1.00
816;DHT22;25928;51.062;13.752;2023-02-26T15:56:04;4.00;1.00
816;DHT22;25928;51.062;13.752;2023-02-26T15:58:41;3.70;1.00
816;DHT22;25928;51.062;13.752;2023-02-26T16:01:18;4.00;1.00
816;DHT22;25928;51.062;13.752;2023-02-26T16:03:45;3.90;1.00
816;DHT22;25928;51.062;13.752;2023-02-26T16:06:28;3.90;1.00
816;DHT22;25928;51.062;13.752;2023-02-26T16:08:54;3.90;1.00
816;DHT22;25928;51.062;13.752;2023-02-26T16:11:21;3.90;1.00
816;DHT22;25928;51.062;13.752;2023-02-26T16:13:50;3.90;1.00
816;DHT22;25928;51.062;13.752;2023-02-26T16:16:28;3.90;1.00
816;DHT22;25928;51.062;13.752;2023-02-26T16:18:59;3.90;1.00
816;DHT22;25928;51.062;13.752;2023-02-26T16:21:32;3.90;1.00
816;DHT22;25928;51.062;13.752;2023-02-26T16:24:00;3.90;1.00
816;DHT22;25928;51.062;13.752;2023-02-26T16:26:44;3.80;1.00
816;DHT22;25928;51.062;13.752;2023-02-26T16:29:18;3.70;1.00
816;DHT22;25928;51.062;13.752;2023-02-26T16:31:50;3.60;1.00
816;DHT22;25928;51.062;13.752;2023-02-26T16:34:50;3.60;1.00
816;DHT22;25928;51.062;13.752;2023-02-26T16:42:43;3.50;1.00
816;DHT22;25928;51.062;13.752;2023-02-26T16:48:02;3.30;1.00
816;DHT22;25928;51.062;13.752;2023-02-26T16:50:31;3.40;1.00
816;DHT22;25928;51.062;13.752;2023-02-26T16:55:30;3.40;1.00
816;DHT22;25928;51.062;13.752;2023-02-26T16:57:57;3.30;1.00
816;DHT22;25928;51.062;13.752;2023-02-26T17:00:27;3.30;1.00
816;DHT22;25928;51.062;13.752;2023-02-26T17:03:16;3.20;1.00
816;DHT22;25928;51.062;13.752;2023-02-26T17:05:58;3.20;1.00
816;DHT22;25928;51.062;13.752;2023-02-26T17:08:52;3.20;1.00
816;DHT22;25928;51.062;13.752;2023-02-26T17:11:31;3.30;1.00
816;DHT22;25928;51.062;13.752;2023-02-26T17:16:38;3.60;1.00
816;DHT22;25928;51.062;13.752;2023-02-26T17:19:04;3.70;1.00
816;DHT22;25928;51.062;13.752;2023-02-26T17:21:30;3.70;1.00
816;DHT22;25928;51.062;13.752;2023-02-26T17:23:56;3.90;1.00
816;DHT22;25928;51.062;13.752;2023-02-26T17:26:22;3.90;1.00
816;DHT22;25928;51.062;13.752;2023-02-26T17:28:48;4.00;1.00
816;DHT22;25928;51.062;13.752;2023-02-26T17:31:13;4.10;1.00
816;DHT22;25928;51.062;13.752;2023-02-26T17:33:41;4.10;1.00
816;DHT22;25928;51.062;13.752;2023-02-26T17:36:13;4.00;1.00
816;DHT22;25928;51.062;13.752;2023-02-26T17:38:39;3.90;1.00
816;DHT22;25928;51.062;13.752;2023-02-26T17:41:08;3.70;1.00
816;DHT22;25928;51.062;13.752;2023-02-26T17:43:34;3.50;1.00
816;DHT22;25928;51.062;13.752;2023-02-26T17:45:59;3.40;1.00
816;DHT22;25928;51.062;13.752;2023-02-26T17:48:25;3.30;1.00
816;DHT22;25928;51.062;13.752;2023-02-26T17:50:55;3.20;1.00
816;DHT22;25928;51.062;13.752;2023-02-26T17:53:24;3.10;1.00
816;DHT22;25928;51.062;13.752;2023-02-26T17:55:55;3.10;1.00
816;DHT22;25928;51.062;13.752;2023-02-26T18:00:49;3.20;1.00
816;DHT22;25928;51.062;13.752;2023-02-26T18:03:17;3.20;1.00
816;DHT22;25928;51.062;13.752;2023-02-26T18:05:48;3.10;1.00
816;DHT22;25928;51.062;13.752;2023-02-26T18:10:42;3.00;1.00
816;DHT22;25928;51.062;13.752;2023-02-26T18:13:09;3.00;1.00
816;DHT22;25928;51.062;13.752;2023-02-26T18:15:35;2.90;1.00
816;DHT22;25928;51.062;13.752;2023-02-26T18:18:01;3.00;1.00
816;DHT22;25928;51.062;13.752;2023-02-26T18:20:26;2.90;1.00
816;DHT22;25928;51.062;13.752;2023-02-26T18:22:54;3.00;1.00
816;DHT22;25928;51.062;13.752;2023-02-26T18:25:20;3.10;1.00
816;DHT22;25928;51.062;13.752;2023-02-26T18:27:49;3.10;1.00
816;DHT22;25928;51.062;13.752;2023-02-26T18:30:23;3.20;1.00
816;DHT22;25928;51.062;13.752;2023-02-26T18:32:49;3.30;1.00
816;DHT22;25928;51.062;13.752;2023-02-26T18:35:16;3.40;1.00
816;DHT22;25928;51.062;13.752;2023-02-26T18:37:42;3.60;1.00
816;DHT22;25928;51.062;13.752;2023-02-26T18:40:12;3.70;1.00
816;DHT22;25928;51.062;13.752;2023-02-26T18:42:39;3.80;1.00
816;DHT22;25928;51.062;13.752;2023-02-26T18:45:05;3.80;1.00
816;DHT22;25928;51.062;13.752;2023-02-26T18:47:30;3.80;1.00
816;DHT22;25928;51.062;13.752;2023-02-26T18:49:56;3.70;1.00
816;DHT22;25928;51.062;13.752;2023-02-26T18:52:22;3.60;1.00
816;DHT22;25928;51.062;13.752;2023-02-26T18:54:48;3.40;1.00
816;DHT22;25928;51.062;13.752;2023-02-26T18:57:14;3.20;1.00
816;DHT22;25928;51.062;13.752;2023-02-26T18:59:40;3.10;1.00
816;DHT22;25928;51.062;13.752;2023-02-26T19:02:06;3.00;1.00
816;DHT22;25928;51.062;13.752;2023-02-26T19:04:35;2.90;1.00
816;DHT22;25928;51.062;13.752;2023-02-26T19:07:00;2.80;1.00
816;DHT22;25928;51.062;13.752;2023-02-26T19:09:26;2.80;1.00
816;DHT22;25928;51.062;13.752;2023-02-26T19:11:54;2.70;1.00
816;DHT22;25928;51.062;13.752;2023-02-26T19:14:20;2.70;1.00
816;DHT22;25928;51.062;13.752;2023-02-26T19:16:46;2.60;1.00
816;DHT22;25928;51.062;13.752;2023-02-26T19:19:11;2.50;1.00
816;DHT22;25928;51.062;13.752;2023-02-26T19:21:37;2.50;1.00
816;DHT22;25928;51.062;13.752;2023-02-26T19:24:10;2.60;1.00
816;DHT22;25928;51.062;13.752;2023-02-26T19:26:36;3.30;1.00